Unity N — V7WI2 — position and weather

sailwx.info

Track history (hours):
 
Tides and Currents Weather Stations Pressure Air Temp Water Temp Dewpoint Dewpoint Depression Visibility Wind Speed Wind Dir Waves Ship Positions

Unity N

Last reported at 2017-Sep-19 17:00 UTC. Time now 2017-Sep-19 17:15 UTC.
Position N 24°44' E 120°16'.

Length 229 m; draft 8 m.

Type: Cargo ship. MMSI: 538006451.

Date/timePositionNaut miles runAvg speedWind from/ knotsBaromVisibWave heightAir tempDewpointWater temp
2017-Sep-19 17:00N 24°44' E 120°16'510.8
2017-Sep-19 16:30N 24°49' E 120°18'510.9
2017-Sep-19 16:00N 24°55' E 120°20'511.0
2017-Sep-19 15:31N 24°60' E 120°22'610.9
2017-Sep-19 15:00N 25°04' E 120°26'611.2
2017-Sep-19 14:30N 25°08' E 120°30'611.3
2017-Sep-19 14:01N 25°13' E 120°34'25210.6
2017-Sep-18 14:19N 28°41' E 123°13'310.3
2017-Sep-18 14:00N 28°44' E 123°15'511 9.9
2017-Sep-16 10:39N 37°15' E 123°33'110.7
2017-Sep-16 10:30N 37°16' E 123°33'9 9.5
2017-Sep-16 09:34N 37°23' E 123°25'110.1
2017-Sep-16 09:27N 37°23' E 123°24'410.0
2017-Sep-16 09:00N 37°26' E 123°20'13 9.7
2017-Sep-16 07:42N 37°32' E 123°06'3 9.3
2017-Sep-16 07:24N 37°33' E 123°03'7 8.9
2017-Sep-16 06:36N 37°36' E 122°55'1 8.2
2017-Sep-16 06:26N 37°38' E 122°54'9 9.1
2017-Sep-16 05:29N 37°42' E 122°44'7 9.1
2017-Sep-16 04:45N 37°45' E 122°37'3 9.4
2017-Sep-16 04:26N 37°47' E 122°34'4 9.5
2017-Sep-16 04:00N 37°49' E 122°29'19 9.8
2017-Sep-16 02:02N 37°59' E 122°08'2 9.7
2017-Sep-16 01:52N 37°59' E 122°06'16 9.8
2017-Sep-16 00:16N 38°07' E 121°49'4 9.7
2017-Sep-15 23:49N 38°09' E 121°44'27 9.8
2017-Sep-15 21:05N 38°24' E 121°16'110.2
2017-Sep-15 20:59N 38°24' E 121°14'510.2
2017-Sep-15 20:27N 38°27' E 121°08'1410.6
2017-Sep-15 19:10N 38°34' E 120°53'510.7
2017-Sep-15 18:44N 38°35' E 120°47'5110.8
2017-Sep-15 14:02N 38°41' E 119°43'1 9.9
2017-Sep-15 13:57N 38°41' E 119°42'12 9.9
2017-Sep-15 12:43N 38°43' E 119°26'2 9.8
2017-Sep-15 12:30N 38°44' E 119°24'6 9.6
2017-Sep-15 11:50N 38°44' E 119°16'5 9.8
2017-Sep-15 11:18N 38°45' E 119°09'3 9.5
2017-Sep-15 10:59N 38°45' E 119°05'8 9.4
2017-Sep-15 10:10N 38°46' E 118°55'2 9.5
2017-Sep-15 09:55N 38°46' E 118°52'45 9.2
2017-Sep-15 05:01N 38°57' E 117°56'0 8.1
2017-Sep-15 05:00N 38°57' E 117°56'611.3
2017-Sep-15 04:30N 38°58' E 117°49'2 3.5
2017-Sep-15 04:00N 38°58' E 117°46'0 0.0
2017-Sep-15 03:24N 38°58' E 117°46'0 0.0
2017-Sep-15 03:00N 38°58' E 117°46'0 0.0
2017-Sep-15 02:30N 38°58' E 117°46'0 0.0
2017-Sep-15 01:54N 38°58' E 117°46'0 0.0
2017-Sep-15 01:30N 38°58' E 117°46'0 0.0
2017-Sep-15 01:00N 38°58' E 117°46'0 0.0
2017-Sep-15 00:30N 38°58' E 117°46'0 0.0
2017-Sep-15 00:00N 38°58' E 117°46'0 0.0
2017-Sep-14 23:24N 38°58' E 117°46'0 0.0
2017-Sep-14 23:00N 38°58' E 117°46'0 0.0
2017-Sep-14 22:06N 38°58' E 117°46'0 0.0
2017-Sep-14 21:00N 38°58' E 117°46'0 0.0
2017-Sep-14 18:54N 38°58' E 117°46'0 0.0
2017-Sep-14 18:30N 38°58' E 117°46'0 0.0
2017-Sep-14 18:00N 38°58' E 117°46'0 0.0
2017-Sep-14 17:24N 38°58' E 117°46'0 0.0
2017-Sep-14 17:00N 38°58' E 117°46'0 0.0
2017-Sep-14 16:24N 38°58' E 117°46'0 0.0
2017-Sep-14 15:48N 38°58' E 117°46'0 0.0
2017-Sep-14 15:30N 38°58' E 117°46'0 0.0
2017-Sep-14 15:00N 38°58' E 117°46'0 0.0
2017-Sep-14 14:30N 38°58' E 117°46'0 0.0
2017-Sep-14 14:00N 38°58' E 117°46'0 0.0
2017-Sep-14 13:18N 38°58' E 117°46'0 0.0
2017-Sep-14 12:54N 38°58' E 117°46'0 0.0
2017-Sep-14 12:24N 38°58' E 117°46'0 0.0
2017-Sep-14 12:00N 38°58' E 117°46'0 0.0
2017-Sep-14 11:30N 38°58' E 117°46'0 0.0
2017-Sep-14 10:48N 38°58' E 117°46'0 0.0
2017-Sep-14 10:24N 38°58' E 117°46'0 0.0
2017-Sep-14 10:00N 38°58' E 117°46'0 0.0
2017-Sep-14 09:30N 38°58' E 117°46'0 0.0
2017-Sep-14 09:00N 38°58' E 117°46'0 0.0
2017-Sep-14 08:30N 38°58' E 117°46'0 0.0
2017-Sep-14 07:54N 38°58' E 117°46'0 0.0
2017-Sep-14 07:30N 38°58' E 117°46'0 0.0
2017-Sep-14 07:00N 38°58' E 117°46'0 0.0
2017-Sep-14 06:30N 38°58' E 117°46'0 0.0
2017-Sep-14 06:00N 38°58' E 117°46'0 0.0
2017-Sep-14 05:30N 38°58' E 117°46'0 0.0
2017-Sep-14 05:00N 38°58' E 117°46'0 0.0
2017-Sep-14 04:30N 38°58' E 117°46'0 0.0
2017-Sep-14 04:00N 38°58' E 117°46'0 0.0
2017-Sep-14 03:24N 38°58' E 117°46'0 0.0
2017-Sep-14 03:00N 38°58' E 117°46'0 0.0
2017-Sep-14 02:30N 38°58' E 117°46'0 0.0
2017-Sep-14 01:48N 38°58' E 117°46'0 0.0
2017-Sep-14 01:30N 38°58' E 117°46'0 0.0
2017-Sep-14 01:00N 38°58' E 117°46'0 0.0
2017-Sep-14 00:30N 38°58' E 117°46'0 0.0
2017-Sep-14 00:00N 38°58' E 117°46'0 0.0
2017-Sep-13 23:30N 38°58' E 117°46'0 0.0
2017-Sep-13 22:54N 38°58' E 117°46'0 0.0
2017-Sep-13 22:30N 38°58' E 117°46'0 0.0
2017-Sep-13 22:00N 38°58' E 117°46'0 0.0
2017-Sep-13 21:30N 38°58' E 117°46'0 0.0
2017-Sep-13 20:54N 38°58' E 117°46'0 0.0
2017-Sep-13 20:30N 38°58' E 117°46'0 0.0
2017-Sep-13 20:00N 38°58' E 117°46'0 0.0
2017-Sep-13 19:30N 38°58' E 117°46'0 0.0
2017-Sep-13 18:54N 38°58' E 117°46'0 0.0
2017-Sep-13 18:30N 38°58' E 117°46'0 0.0
2017-Sep-13 17:54N 38°58' E 117°46'0 0.0
2017-Sep-13 17:30N 38°58' E 117°46'0 0.0
2017-Sep-13 17:00N 38°58' E 117°46'0 0.0
2017-Sep-13 16:24N 38°58' E 117°46'0 0.0
2017-Sep-13 15:54N 38°58' E 117°46'0 0.0
2017-Sep-13 15:24N 38°58' E 117°46'0 0.0
2017-Sep-13 15:00N 38°58' E 117°46'0 0.0
2017-Sep-13 14:30N 38°58' E 117°46'0 0.0
2017-Sep-13 13:48N 38°58' E 117°46'0 0.0
2017-Sep-13 13:30N 38°58' E 117°46'0 0.0
2017-Sep-13 13:00N 38°58' E 117°46'0 0.0
2017-Sep-13 12:30N 38°58' E 117°46'0 0.0
2017-Sep-13 12:00N 38°58' E 117°46'0 0.0
2017-Sep-13 11:24N 38°58' E 117°46'0 0.0
2017-Sep-13 11:00N 38°58' E 117°46'0 0.0
2017-Sep-13 10:30N 38°58' E 117°46'0 0.0
2017-Sep-13 10:00N 38°58' E 117°46'0 0.0
2017-Sep-13 09:24N 38°58' E 117°46'0 0.0
2017-Sep-13 09:00N 38°58' E 117°46'0 0.0
2017-Sep-13 08:24N 38°58' E 117°46'0 0.0
2017-Sep-13 08:00N 38°58' E 117°46'0 0.0
2017-Sep-13 07:24N 38°58' E 117°46'0 0.0
2017-Sep-13 07:00N 38°58' E 117°46'0 0.0
2017-Sep-13 06:30N 38°58' E 117°46'0 0.0
2017-Sep-13 06:00N 38°58' E 117°46'0 0.0
2017-Sep-13 05:30N 38°58' E 117°46'0 0.0
2017-Sep-13 04:54N 38°58' E 117°46'0 0.0
2017-Sep-13 04:30N 38°58' E 117°46'0 0.0
2017-Sep-13 03:54N 38°58' E 117°46'0 0.0
2017-Sep-13 03:30N 38°58' E 117°46'0 0.0
2017-Sep-13 03:00N 38°58' E 117°46'0 0.0
2017-Sep-13 02:30N 38°58' E 117°46'0 0.0
2017-Sep-13 02:00N 38°58' E 117°46'0 0.0
2017-Sep-13 01:30N 38°58' E 117°46'0 0.0
2017-Sep-13 01:00N 38°58' E 117°46'0 0.0
2017-Sep-13 00:30N 38°58' E 117°46'0 0.0
2017-Sep-13 00:00N 38°58' E 117°46'0 0.0
2017-Sep-12 23:30N 38°58' E 117°46'0 0.0
2017-Sep-12 23:00N 38°58' E 117°46'0 0.0
2017-Sep-12 22:30N 38°58' E 117°46'0 0.0
2017-Sep-12 21:54N 38°58' E 117°46'0 0.0
2017-Sep-12 21:24N 38°58' E 117°46'0 0.0
2017-Sep-12 21:00N 38°58' E 117°46'0 0.0
2017-Sep-12 20:18N 38°58' E 117°46'0 0.0
2017-Sep-12 20:00N 38°58' E 117°46'0 0.0
2017-Sep-12 19:30N 38°58' E 117°46'0 0.0
2017-Sep-12 19:00N 38°58' E 117°46'0 0.0
2017-Sep-12 18:30N 38°58' E 117°46'0 0.0
2017-Sep-12 18:00N 38°58' E 117°46'0 0.0
2017-Sep-12 17:30N 38°58' E 117°46'0 0.0
2017-Sep-12 17:00N 38°58' E 117°46'0 0.0
2017-Sep-12 16:30N 38°58' E 117°46'0 0.0
2017-Sep-12 16:00N 38°58' E 117°46'0 0.0
2017-Sep-12 15:30N 38°58' E 117°46'0 0.0
2017-Sep-12 15:00N 38°58' E 117°46'0 0.0
2017-Sep-12 14:30N 38°58' E 117°46'0 0.0
2017-Sep-12 14:00N 38°58' E 117°46'0 0.0
2017-Sep-12 13:30N 38°58' E 117°46'0 0.0
2017-Sep-12 12:42N 38°58' E 117°46'0 0.0
2017-Sep-12 12:29N 38°58' E 117°46'0 0.0
2017-Sep-12 12:00N 38°58' E 117°46'0 0.0
2017-Sep-12 11:30N 38°58' E 117°46'0 0.0
2017-Sep-12 10:59N 38°58' E 117°46'0 0.0
2017-Sep-12 10:29N 38°58' E 117°46'0 0.0
2017-Sep-12 10:00N 38°58' E 117°46'0 0.0
2017-Sep-12 09:30N 38°58' E 117°46'1 1.3
2017-Sep-12 09:01N 38°58' E 117°47'4 7.5
2017-Sep-12 08:30N 38°58' E 117°52'  
Track history (hours):
 
Tides and Currents Weather Stations Pressure Air Temp Water Temp Dewpoint Dewpoint Depression Visibility Wind Speed Wind Dir Waves Ship Positions

Unity N

Last reported at 2017-Sep-19 17:00 UTC. Time now 2017-Sep-19 17:15 UTC.
Position N 24°44' E 120°16'.

Length 229 m; draft 8 m.

Type: Cargo ship. MMSI: 538006451.

Date/timePositionNaut miles runAvg speedWind from/ knotsBaromVisibWave heightAir tempDewpointWater temp
2017-Sep-19 17:00N 24°44' E 120°16'510.8
2017-Sep-19 16:30N 24°49' E 120°18'510.9
2017-Sep-19 16:00N 24°55' E 120°20'511.0
2017-Sep-19 15:31N 24°60' E 120°22'610.9
2017-Sep-19 15:00N 25°04' E 120°26'611.2
2017-Sep-19 14:30N 25°08' E 120°30'611.3
2017-Sep-19 14:01N 25°13' E 120°34'25210.6
2017-Sep-18 14:19N 28°41' E 123°13'310.3
2017-Sep-18 14:00N 28°44' E 123°15'511 9.9
2017-Sep-16 10:39N 37°15' E 123°33'110.7
2017-Sep-16 10:30N 37°16' E 123°33'9 9.5
2017-Sep-16 09:34N 37°23' E 123°25'110.1
2017-Sep-16 09:27N 37°23' E 123°24'410.0
2017-Sep-16 09:00N 37°26' E 123°20'13 9.7
2017-Sep-16 07:42N 37°32' E 123°06'3 9.3
2017-Sep-16 07:24N 37°33' E 123°03'7 8.9
2017-Sep-16 06:36N 37°36' E 122°55'1 8.2
2017-Sep-16 06:26N 37°38' E 122°54'9 9.1
2017-Sep-16 05:29N 37°42' E 122°44'7 9.1
2017-Sep-16 04:45N 37°45' E 122°37'3 9.4
2017-Sep-16 04:26N 37°47' E 122°34'4 9.5
2017-Sep-16 04:00N 37°49' E 122°29'19 9.8
2017-Sep-16 02:02N 37°59' E 122°08'2 9.7
2017-Sep-16 01:52N 37°59' E 122°06'16 9.8
2017-Sep-16 00:16N 38°07' E 121°49'4 9.7
2017-Sep-15 23:49N 38°09' E 121°44'27 9.8
2017-Sep-15 21:05N 38°24' E 121°16'110.2
2017-Sep-15 20:59N 38°24' E 121°14'510.2
2017-Sep-15 20:27N 38°27' E 121°08'1410.6
2017-Sep-15 19:10N 38°34' E 120°53'510.7
2017-Sep-15 18:44N 38°35' E 120°47'5110.8
2017-Sep-15 14:02N 38°41' E 119°43'1 9.9
2017-Sep-15 13:57N 38°41' E 119°42'12 9.9
2017-Sep-15 12:43N 38°43' E 119°26'2 9.8
2017-Sep-15 12:30N 38°44' E 119°24'6 9.6
2017-Sep-15 11:50N 38°44' E 119°16'5 9.8
2017-Sep-15 11:18N 38°45' E 119°09'3 9.5
2017-Sep-15 10:59N 38°45' E 119°05'8 9.4
2017-Sep-15 10:10N 38°46' E 118°55'2 9.5
2017-Sep-15 09:55N 38°46' E 118°52'45 9.2
2017-Sep-15 05:01N 38°57' E 117°56'0 8.1
2017-Sep-15 05:00N 38°57' E 117°56'611.3
2017-Sep-15 04:30N 38°58' E 117°49'2 3.5
2017-Sep-15 04:00N 38°58' E 117°46'0 0.0
2017-Sep-15 03:24N 38°58' E 117°46'0 0.0
2017-Sep-15 03:00N 38°58' E 117°46'0 0.0
2017-Sep-15 02:30N 38°58' E 117°46'0 0.0
2017-Sep-15 01:54N 38°58' E 117°46'0 0.0
2017-Sep-15 01:30N 38°58' E 117°46'0 0.0
2017-Sep-15 01:00N 38°58' E 117°46'0 0.0
2017-Sep-15 00:30N 38°58' E 117°46'0 0.0
2017-Sep-15 00:00N 38°58' E 117°46'0 0.0
2017-Sep-14 23:24N 38°58' E 117°46'0 0.0
2017-Sep-14 23:00N 38°58' E 117°46'0 0.0
2017-Sep-14 22:06N 38°58' E 117°46'0 0.0
2017-Sep-14 21:00N 38°58' E 117°46'0 0.0
2017-Sep-14 18:54N 38°58' E 117°46'0 0.0
2017-Sep-14 18:30N 38°58' E 117°46'0 0.0
2017-Sep-14 18:00N 38°58' E 117°46'0 0.0
2017-Sep-14 17:24N 38°58' E 117°46'0 0.0
2017-Sep-14 17:00N 38°58' E 117°46'0 0.0
2017-Sep-14 16:24N 38°58' E 117°46'0 0.0
2017-Sep-14 15:48N 38°58' E 117°46'0 0.0
2017-Sep-14 15:30N 38°58' E 117°46'0 0.0
2017-Sep-14 15:00N 38°58' E 117°46'0 0.0
2017-Sep-14 14:30N 38°58' E 117°46'0 0.0
2017-Sep-14 14:00N 38°58' E 117°46'0 0.0
2017-Sep-14 13:18N 38°58' E 117°46'0 0.0
2017-Sep-14 12:54N 38°58' E 117°46'0 0.0
2017-Sep-14 12:24N 38°58' E 117°46'0 0.0
2017-Sep-14 12:00N 38°58' E 117°46'0 0.0
2017-Sep-14 11:30N 38°58' E 117°46'0 0.0
2017-Sep-14 10:48N 38°58' E 117°46'0 0.0
2017-Sep-14 10:24N 38°58' E 117°46'0 0.0
2017-Sep-14 10:00N 38°58' E 117°46'0 0.0
2017-Sep-14 09:30N 38°58' E 117°46'0 0.0
2017-Sep-14 09:00N 38°58' E 117°46'0 0.0
2017-Sep-14 08:30N 38°58' E 117°46'0 0.0
2017-Sep-14 07:54N 38°58' E 117°46'0 0.0
2017-Sep-14 07:30N 38°58' E 117°46'0 0.0
2017-Sep-14 07:00N 38°58' E 117°46'0 0.0
2017-Sep-14 06:30N 38°58' E 117°46'0 0.0
2017-Sep-14 06:00N 38°58' E 117°46'0 0.0
2017-Sep-14 05:30N 38°58' E 117°46'0 0.0
2017-Sep-14 05:00N 38°58' E 117°46'0 0.0
2017-Sep-14 04:30N 38°58' E 117°46'0 0.0
2017-Sep-14 04:00N 38°58' E 117°46'0 0.0
2017-Sep-14 03:24N 38°58' E 117°46'0 0.0
2017-Sep-14 03:00N 38°58' E 117°46'0 0.0
2017-Sep-14 02:30N 38°58' E 117°46'0 0.0
2017-Sep-14 01:48N 38°58' E 117°46'0 0.0
2017-Sep-14 01:30N 38°58' E 117°46'0 0.0
2017-Sep-14 01:00N 38°58' E 117°46'0 0.0
2017-Sep-14 00:30N 38°58' E 117°46'0 0.0
2017-Sep-14 00:00N 38°58' E 117°46'0 0.0
2017-Sep-13 23:30N 38°58' E 117°46'0 0.0
2017-Sep-13 22:54N 38°58' E 117°46'0 0.0
2017-Sep-13 22:30N 38°58' E 117°46'0 0.0
2017-Sep-13 22:00N 38°58' E 117°46'0 0.0
2017-Sep-13 21:30N 38°58' E 117°46'0 0.0
2017-Sep-13 20:54N 38°58' E 117°46'0 0.0
2017-Sep-13 20:30N 38°58' E 117°46'0 0.0
2017-Sep-13 20:00N 38°58' E 117°46'0 0.0
2017-Sep-13 19:30N 38°58' E 117°46'0 0.0
2017-Sep-13 18:54N 38°58' E 117°46'0 0.0
2017-Sep-13 18:30N 38°58' E 117°46'0 0.0
2017-Sep-13 17:54N 38°58' E 117°46'0 0.0
2017-Sep-13 17:30N 38°58' E 117°46'0 0.0
2017-Sep-13 17:00N 38°58' E 117°46'0 0.0
2017-Sep-13 16:24N 38°58' E 117°46'0 0.0
2017-Sep-13 15:54N 38°58' E 117°46'0 0.0
2017-Sep-13 15:24N 38°58' E 117°46'0 0.0
2017-Sep-13 15:00N 38°58' E 117°46'0 0.0
2017-Sep-13 14:30N 38°58' E 117°46'0 0.0
2017-Sep-13 13:48N 38°58' E 117°46'0 0.0
2017-Sep-13 13:30N 38°58' E 117°46'0 0.0
2017-Sep-13 13:00N 38°58' E 117°46'0 0.0
2017-Sep-13 12:30N 38°58' E 117°46'0 0.0
2017-Sep-13 12:00N 38°58' E 117°46'0 0.0
2017-Sep-13 11:24N 38°58' E 117°46'0 0.0
2017-Sep-13 11:00N 38°58' E 117°46'0 0.0
2017-Sep-13 10:30N 38°58' E 117°46'0 0.0
2017-Sep-13 10:00N 38°58' E 117°46'0 0.0
2017-Sep-13 09:24N 38°58' E 117°46'0 0.0
2017-Sep-13 09:00N 38°58' E 117°46'0 0.0
2017-Sep-13 08:24N 38°58' E 117°46'0 0.0
2017-Sep-13 08:00N 38°58' E 117°46'0 0.0
2017-Sep-13 07:24N 38°58' E 117°46'0 0.0
2017-Sep-13 07:00N 38°58' E 117°46'0 0.0
2017-Sep-13 06:30N 38°58' E 117°46'0 0.0
2017-Sep-13 06:00N 38°58' E 117°46'0 0.0
2017-Sep-13 05:30N 38°58' E 117°46'0 0.0
2017-Sep-13 04:54N 38°58' E 117°46'0 0.0
2017-Sep-13 04:30N 38°58' E 117°46'0 0.0
2017-Sep-13 03:54N 38°58' E 117°46'0 0.0
2017-Sep-13 03:30N 38°58' E 117°46'0 0.0
2017-Sep-13 03:00N 38°58' E 117°46'0 0.0
2017-Sep-13 02:30N 38°58' E 117°46'0 0.0
2017-Sep-13 02:00N 38°58' E 117°46'0 0.0
2017-Sep-13 01:30N 38°58' E 117°46'0 0.0
2017-Sep-13 01:00N 38°58' E 117°46'0 0.0
2017-Sep-13 00:30N 38°58' E 117°46'0 0.0
2017-Sep-13 00:00N 38°58' E 117°46'0 0.0
2017-Sep-12 23:30N 38°58' E 117°46'0 0.0
2017-Sep-12 23:00N 38°58' E 117°46'0 0.0
2017-Sep-12 22:30N 38°58' E 117°46'0 0.0
2017-Sep-12 21:54N 38°58' E 117°46'0 0.0
2017-Sep-12 21:24N 38°58' E 117°46'0 0.0
2017-Sep-12 21:00N 38°58' E 117°46'0 0.0
2017-Sep-12 20:18N 38°58' E 117°46'0 0.0
2017-Sep-12 20:00N 38°58' E 117°46'0 0.0
2017-Sep-12 19:30N 38°58' E 117°46'0 0.0
2017-Sep-12 19:00N 38°58' E 117°46'0 0.0
2017-Sep-12 18:30N 38°58' E 117°46'0 0.0
2017-Sep-12 18:00N 38°58' E 117°46'0 0.0
2017-Sep-12 17:30N 38°58' E 117°46'0 0.0
2017-Sep-12 17:00N 38°58' E 117°46'0 0.0
2017-Sep-12 16:30N 38°58' E 117°46'0 0.0
2017-Sep-12 16:00N 38°58' E 117°46'0 0.0
2017-Sep-12 15:30N 38°58' E 117°46'0 0.0
2017-Sep-12 15:00N 38°58' E 117°46'0 0.0
2017-Sep-12 14:30N 38°58' E 117°46'0 0.0
2017-Sep-12 14:00N 38°58' E 117°46'0 0.0
2017-Sep-12 13:30N 38°58' E 117°46'0 0.0
2017-Sep-12 12:42N 38°58' E 117°46'0 0.0
2017-Sep-12 12:29N 38°58' E 117°46'0 0.0
2017-Sep-12 12:00N 38°58' E 117°46'0 0.0
2017-Sep-12 11:30N 38°58' E 117°46'0 0.0
2017-Sep-12 10:59N 38°58' E 117°46'0 0.0
2017-Sep-12 10:29N 38°58' E 117°46'0 0.0
2017-Sep-12 10:00N 38°58' E 117°46'0 0.0
2017-Sep-12 09:30N 38°58' E 117°46'1 1.3
2017-Sep-12 09:01N 38°58' E 117°47'4 7.5
2017-Sep-12 08:30N 38°58' E 117°52'  

Dump ship's entire track history